sensor_id;sensor_type;location;lat;lon;timestamp;temperature;humidity
22682;DHT22;11508;50.856;4.380;2023-08-20T00:02:10;21.30;1.00
22682;DHT22;11508;50.856;4.380;2023-08-20T00:04:36;21.30;1.00
22682;DHT22;11508;50.856;4.380;2023-08-20T00:07:03;21.40;1.00
22682;DHT22;11508;50.856;4.380;2023-08-20T00:09:29;21.40;1.00
22682;DHT22;11508;50.856;4.380;2023-08-20T00:11:55;21.40;1.00
22682;DHT22;11508;50.856;4.380;2023-08-20T00:14:57;21.40;1.00
22682;DHT22;11508;50.856;4.380;2023-08-20T00:17:30;21.30;1.00
22682;DHT22;11508;50.856;4.380;2023-08-20T00:19:57;21.20;1.00
22682;DHT22;11508;50.856;4.380;2023-08-20T00:22:24;20.80;1.00
22682;DHT22;11508;50.856;4.380;2023-08-20T00:24:54;20.80;1.00
22682;DHT22;11508;50.856;4.380;2023-08-20T00:27:21;21.00;1.00
22682;DHT22;11508;50.856;4.380;2023-08-20T00:29:47;21.00;1.00
22682;DHT22;11508;50.856;4.380;2023-08-20T00:32:15;21.10;1.00
22682;DHT22;11508;50.856;4.380;2023-08-20T00:34:40;21.30;1.00
22682;DHT22;11508;50.856;4.380;2023-08-20T00:37:06;21.30;1.00
22682;DHT22;11508;50.856;4.380;2023-08-20T00:39:32;21.30;1.00
22682;DHT22;11508;50.856;4.380;2023-08-20T00:41:58;21.40;1.00
22682;DHT22;11508;50.856;4.380;2023-08-20T00:44:23;21.30;1.00
22682;DHT22;11508;50.856;4.380;2023-08-20T00:46:50;21.30;1.00
22682;DHT22;11508;50.856;4.380;2023-08-20T00:49:17;21.30;1.00
22682;DHT22;11508;50.856;4.380;2023-08-20T00:51:43;21.00;1.00
22682;DHT22;11508;50.856;4.380;2023-08-20T00:54:09;20.80;1.00
22682;DHT22;11508;50.856;4.380;2023-08-20T00:56:35;21.00;1.00
22682;DHT22;11508;50.856;4.380;2023-08-20T00:59:01;21.20;1.00
22682;DHT22;11508;50.856;4.380;2023-08-20T01:01:27;21.40;1.00
22682;DHT22;11508;50.856;4.380;2023-08-20T01:03:54;21.50;1.00
22682;DHT22;11508;50.856;4.380;2023-08-20T01:12:03;21.90;1.00
22682;DHT22;11508;50.856;4.380;2023-08-20T01:14:28;21.50;1.00
22682;DHT22;11508;50.856;4.380;2023-08-20T01:16:54;21.60;1.00
22682;DHT22;11508;50.856;4.380;2023-08-20T01:19:21;21.60;1.00
22682;DHT22;11508;50.856;4.380;2023-08-20T01:28:18;21.80;1.00
22682;DHT22;11508;50.856;4.380;2023-08-20T01:30:44;21.90;1.00
22682;DHT22;11508;50.856;4.380;2023-08-20T01:33:11;21.90;1.00
22682;DHT22;11508;50.856;4.380;2023-08-20T01:35:38;21.80;1.00
22682;DHT22;11508;50.856;4.380;2023-08-20T01:38:04;21.90;1.00
22682;DHT22;11508;50.856;4.380;2023-08-20T01:40:30;21.90;1.00
22682;DHT22;11508;50.856;4.380;2023-08-20T01:42:57;21.90;1.00
22682;DHT22;11508;50.856;4.380;2023-08-20T01:45:23;22.00;1.00
22682;DHT22;11508;50.856;4.380;2023-08-20T01:47:49;22.00;1.00
22682;DHT22;11508;50.856;4.380;2023-08-20T01:50:14;22.10;1.00
22682;DHT22;11508;50.856;4.380;2023-08-20T01:52:40;22.00;1.00
22682;DHT22;11508;50.856;4.380;2023-08-20T01:55:06;22.00;1.00
22682;DHT22;11508;50.856;4.380;2023-08-20T01:57:32;21.90;1.00
22682;DHT22;11508;50.856;4.380;2023-08-20T01:59:58;21.80;1.00
22682;DHT22;11508;50.856;4.380;2023-08-20T02:02:24;21.80;1.00
22682;DHT22;11508;50.856;4.380;2023-08-20T02:04:50;21.70;1.00
22682;DHT22;11508;50.856;4.380;2023-08-20T02:07:16;21.70;1.00
22682;DHT22;11508;50.856;4.380;2023-08-20T02:09:42;21.60;1.00
22682;DHT22;11508;50.856;4.380;2023-08-20T02:12:08;21.60;1.00
22682;DHT22;11508;50.856;4.380;2023-08-20T02:14:34;21.60;1.00
22682;DHT22;11508;50.856;4.380;2023-08-20T02:17:01;21.50;1.00
22682;DHT22;11508;50.856;4.380;2023-08-20T02:19:27;21.50;1.00
22682;DHT22;11508;50.856;4.380;2023-08-20T02:21:53;21.50;1.00
22682;DHT22;11508;50.856;4.380;2023-08-20T02:24:19;21.50;1.00
22682;DHT22;11508;50.856;4.380;2023-08-20T02:26:45;21.50;1.00
22682;DHT22;11508;50.856;4.380;2023-08-20T02:29:10;21.50;1.00
22682;DHT22;11508;50.856;4.380;2023-08-20T02:31:36;21.40;1.00
22682;DHT22;11508;50.856;4.380;2023-08-20T02:34:02;21.40;1.00
22682;DHT22;11508;50.856;4.380;2023-08-20T02:36:28;21.40;1.00
22682;DHT22;11508;50.856;4.380;2023-08-20T02:38:53;21.30;1.00
22682;DHT22;11508;50.856;4.380;2023-08-20T02:41:19;21.20;1.00
22682;DHT22;11508;50.856;4.380;2023-08-20T02:43:45;21.10;1.00
22682;DHT22;11508;50.856;4.380;2023-08-20T02:46:11;21.10;1.00
22682;DHT22;11508;50.856;4.380;2023-08-20T02:48:36;21.00;1.00
22682;DHT22;11508;50.856;4.380;2023-08-20T02:51:02;21.10;1.00
22682;DHT22;11508;50.856;4.380;2023-08-20T02:53:28;21.10;1.00
22682;DHT22;11508;50.856;4.380;2023-08-20T02:55:54;21.10;1.00
22682;DHT22;11508;50.856;4.380;2023-08-20T02:58:20;21.20;1.00
22682;DHT22;11508;50.856;4.380;2023-08-20T03:00:45;21.20;1.00
22682;DHT22;11508;50.856;4.380;2023-08-20T03:03:11;21.20;1.00
22682;DHT22;11508;50.856;4.380;2023-08-20T03:05:37;21.20;1.00
22682;DHT22;11508;50.856;4.380;2023-08-20T03:08:04;21.20;1.00
22682;DHT22;11508;50.856;4.380;2023-08-20T03:10:30;21.10;1.00
22682;DHT22;11508;50.856;4.380;2023-08-20T03:13:00;21.10;1.00
22682;DHT22;11508;50.856;4.380;2023-08-20T03:15:26;21.10;1.00
22682;DHT22;11508;50.856;4.380;2023-08-20T03:17:52;21.00;1.00
22682;DHT22;11508;50.856;4.380;2023-08-20T03:20:18;21.00;1.00
22682;DHT22;11508;50.856;4.380;2023-08-20T03:22:43;21.00;1.00
22682;DHT22;11508;50.856;4.380;2023-08-20T03:25:09;20.80;1.00
22682;DHT22;11508;50.856;4.380;2023-08-20T03:27:35;20.80;1.00
22682;DHT22;11508;50.856;4.380;2023-08-20T03:30:01;20.70;1.00
22682;DHT22;11508;50.856;4.380;2023-08-20T03:32:27;20.70;1.00
22682;DHT22;11508;50.856;4.380;2023-08-20T03:34:52;20.80;1.00
22682;DHT22;11508;50.856;4.380;2023-08-20T03:37:19;20.80;1.00
22682;DHT22;11508;50.856;4.380;2023-08-20T03:39:45;20.70;1.00
22682;DHT22;11508;50.856;4.380;2023-08-20T03:42:11;20.70;1.00
22682;DHT22;11508;50.856;4.380;2023-08-20T03:44:36;20.70;1.00
22682;DHT22;11508;50.856;4.380;2023-08-20T03:47:02;20.70;1.00
22682;DHT22;11508;50.856;4.380;2023-08-20T03:49:29;20.80;1.00
22682;DHT22;11508;50.856;4.380;2023-08-20T03:51:55;20.70;1.00
22682;DHT22;11508;50.856;4.380;2023-08-20T03:54:20;20.60;1.00
22682;DHT22;11508;50.856;4.380;2023-08-20T03:56:46;20.60;1.00
22682;DHT22;11508;50.856;4.380;2023-08-20T03:59:11;20.60;1.00
22682;DHT22;11508;50.856;4.380;2023-08-20T04:01:37;20.60;1.00
22682;DHT22;11508;50.856;4.380;2023-08-20T04:04:04;20.50;1.00
22682;DHT22;11508;50.856;4.380;2023-08-20T04:06:29;20.40;1.00
22682;DHT22;11508;50.856;4.380;2023-08-20T04:08:56;20.40;1.00
22682;DHT22;11508;50.856;4.380;2023-08-20T04:11:22;20.40;1.00
22682;DHT22;11508;50.856;4.380;2023-08-20T04:13:48;20.50;1.00
22682;DHT22;11508;50.856;4.380;2023-08-20T04:16:13;20.50;1.00
22682;DHT22;11508;50.856;4.380;2023-08-20T04:18:39;20.60;1.00
22682;DHT22;11508;50.856;4.380;2023-08-20T04:21:05;20.60;1.00
22682;DHT22;11508;50.856;4.380;2023-08-20T04:23:32;20.60;1.00
22682;DHT22;11508;50.856;4.380;2023-08-20T04:25:58;20.50;1.00
22682;DHT22;11508;50.856;4.380;2023-08-20T04:28:24;20.60;1.00
22682;DHT22;11508;50.856;4.380;2023-08-20T04:30:52;20.60;1.00
22682;DHT22;11508;50.856;4.380;2023-08-20T04:33:20;20.60;1.00
22682;DHT22;11508;50.856;4.380;2023-08-20T04:35:46;20.50;1.00
22682;DHT22;11508;50.856;4.380;2023-08-20T04:38:12;20.40;1.00
22682;DHT22;11508;50.856;4.380;2023-08-20T04:40:37;20.50;1.00
22682;DHT22;11508;50.856;4.380;2023-08-20T04:43:03;20.50;1.00
22682;DHT22;11508;50.856;4.380;2023-08-20T04:45:29;20.60;1.00
22682;DHT22;11508;50.856;4.380;2023-08-20T04:47:54;20.70;1.00
22682;DHT22;11508;50.856;4.380;2023-08-20T04:50:20;20.80;1.00
22682;DHT22;11508;50.856;4.380;2023-08-20T04:52:46;20.80;1.00
22682;DHT22;11508;50.856;4.380;2023-08-20T04:55:12;20.80;1.00
22682;DHT22;11508;50.856;4.380;2023-08-20T04:57:37;20.80;1.00
22682;DHT22;11508;50.856;4.380;2023-08-20T05:00:03;20.80;1.00
22682;DHT22;11508;50.856;4.380;2023-08-20T05:02:29;20.70;1.00
22682;DHT22;11508;50.856;4.380;2023-08-20T05:04:55;20.70;1.00
22682;DHT22;11508;50.856;4.380;2023-08-20T05:07:21;20.70;1.00
22682;DHT22;11508;50.856;4.380;2023-08-20T05:09:46;20.80;1.00
22682;DHT22;11508;50.856;4.380;2023-08-20T05:12:12;20.70;1.00
22682;DHT22;11508;50.856;4.380;2023-08-20T05:14:37;20.70;1.00
22682;DHT22;11508;50.856;4.380;2023-08-20T05:17:03;20.80;1.00
22682;DHT22;11508;50.856;4.380;2023-08-20T05:19:29;20.70;1.00
22682;DHT22;11508;50.856;4.380;2023-08-20T05:21:55;20.70;1.00
22682;DHT22;11508;50.856;4.380;2023-08-20T05:24:24;20.70;1.00
22682;DHT22;11508;50.856;4.380;2023-08-20T05:27:06;20.80;1.00
22682;DHT22;11508;50.856;4.380;2023-08-20T05:29:33;20.80;1.00
22682;DHT22;11508;50.856;4.380;2023-08-20T05:31:59;20.90;1.00
22682;DHT22;11508;50.856;4.380;2023-08-20T05:34:24;20.90;1.00
22682;DHT22;11508;50.856;4.380;2023-08-20T05:36:50;21.00;1.00
22682;DHT22;11508;50.856;4.380;2023-08-20T05:39:16;21.10;1.00
22682;DHT22;11508;50.856;4.380;2023-08-20T05:41:41;21.20;1.00
22682;DHT22;11508;50.856;4.380;2023-08-20T05:44:07;21.20;1.00
22682;DHT22;11508;50.856;4.380;2023-08-20T05:46:33;21.30;1.00
22682;DHT22;11508;50.856;4.380;2023-08-20T05:48:58;21.50;1.00
22682;DHT22;11508;50.856;4.380;2023-08-20T05:51:24;21.70;1.00
22682;DHT22;11508;50.856;4.380;2023-08-20T05:53:51;21.70;1.00
22682;DHT22;11508;50.856;4.380;2023-08-20T05:56:16;21.70;1.00
22682;DHT22;11508;50.856;4.380;2023-08-20T05:58:42;21.70;1.00
22682;DHT22;11508;50.856;4.380;2023-08-20T06:01:07;21.70;1.00
22682;DHT22;11508;50.856;4.380;2023-08-20T06:03:33;21.80;1.00
22682;DHT22;11508;50.856;4.380;2023-08-20T06:05:59;21.90;1.00
22682;DHT22;11508;50.856;4.380;2023-08-20T06:08:24;21.90;1.00
22682;DHT22;11508;50.856;4.380;2023-08-20T06:10:50;22.10;1.00
22682;DHT22;11508;50.856;4.380;2023-08-20T06:13:16;22.10;1.00
22682;DHT22;11508;50.856;4.380;2023-08-20T06:15:42;22.10;1.00
22682;DHT22;11508;50.856;4.380;2023-08-20T06:18:08;22.20;1.00
22682;DHT22;11508;50.856;4.380;2023-08-20T06:20:33;22.30;1.00
22682;DHT22;11508;50.856;4.380;2023-08-20T06:22:59;22.20;1.00
22682;DHT22;11508;50.856;4.380;2023-08-20T06:25:25;22.00;99.90
22682;DHT22;11508;50.856;4.380;2023-08-20T06:27:51;22.10;99.90
22682;DHT22;11508;50.856;4.380;2023-08-20T06:30:16;22.40;99.90
22682;DHT22;11508;50.856;4.380;2023-08-20T06:32:44;22.50;99.90
22682;DHT22;11508;50.856;4.380;2023-08-20T06:35:10;22.60;99.90
22682;DHT22;11508;50.856;4.380;2023-08-20T06:37:38;22.70;99.90
22682;DHT22;11508;50.856;4.380;2023-08-20T06:40:04;22.70;99.90
22682;DHT22;11508;50.856;4.380;2023-08-20T06:42:30;22.80;99.90
22682;DHT22;11508;50.856;4.380;2023-08-20T06:44:56;22.90;99.90
22682;DHT22;11508;50.856;4.380;2023-08-20T06:47:21;23.00;99.90
22682;DHT22;11508;50.856;4.380;2023-08-20T06:49:47;23.10;99.90
22682;DHT22;11508;50.856;4.380;2023-08-20T06:52:12;23.10;99.90
22682;DHT22;11508;50.856;4.380;2023-08-20T06:54:38;23.20;99.90
22682;DHT22;11508;50.856;4.380;2023-08-20T06:57:04;23.30;99.90
22682;DHT22;11508;50.856;4.380;2023-08-20T06:59:29;23.40;99.90
22682;DHT22;11508;50.856;4.380;2023-08-20T07:01:55;23.30;99.90
22682;DHT22;11508;50.856;4.380;2023-08-20T07:04:21;23.50;99.90
22682;DHT22;11508;50.856;4.380;2023-08-20T07:06:46;23.30;99.90
22682;DHT22;11508;50.856;4.380;2023-08-20T07:09:12;23.10;99.90
22682;DHT22;11508;50.856;4.380;2023-08-20T07:11:38;23.30;99.90
22682;DHT22;11508;50.856;4.380;2023-08-20T07:14:04;22.70;99.90
22682;DHT22;11508;50.856;4.380;2023-08-20T07:16:31;22.70;99.90
22682;DHT22;11508;50.856;4.380;2023-08-20T07:18:57;23.50;99.90
22682;DHT22;11508;50.856;4.380;2023-08-20T07:21:22;24.60;1.00
22682;DHT22;11508;50.856;4.380;2023-08-20T07:23:48;25.30;1.00
22682;DHT22;11508;50.856;4.380;2023-08-20T07:26:14;25.60;99.90
22682;DHT22;11508;50.856;4.380;2023-08-20T07:28:41;25.60;1.00
22682;DHT22;11508;50.856;4.380;2023-08-20T07:31:25;26.10;1.00
22682;DHT22;11508;50.856;4.380;2023-08-20T07:33:52;28.10;1.00
22682;DHT22;11508;50.856;4.380;2023-08-20T07:36:20;30.40;29.90
22682;DHT22;11508;50.856;4.380;2023-08-20T07:38:47;31.50;66.90
22682;DHT22;11508;50.856;4.380;2023-08-20T07:41:13;31.60;66.20
22682;DHT22;11508;50.856;4.380;2023-08-20T07:43:40;31.60;66.30
22682;DHT22;11508;50.856;4.380;2023-08-20T07:46:06;32.10;62.20
22682;DHT22;11508;50.856;4.380;2023-08-20T07:48:32;33.00;60.40
22682;DHT22;11508;50.856;4.380;2023-08-20T07:50:58;32.50;59.80
22682;DHT22;11508;50.856;4.380;2023-08-20T07:53:24;32.20;59.40
22682;DHT22;11508;50.856;4.380;2023-08-20T07:55:50;31.80;59.70
22682;DHT22;11508;50.856;4.380;2023-08-20T07:58:15;31.60;60.90
22682;DHT22;11508;50.856;4.380;2023-08-20T08:00:41;31.40;61.20
22682;DHT22;11508;50.856;4.380;2023-08-20T08:03:07;31.30;61.90
22682;DHT22;11508;50.856;4.380;2023-08-20T08:05:34;31.10;62.00
22682;DHT22;11508;50.856;4.380;2023-08-20T08:08:00;31.00;59.10
22682;DHT22;11508;50.856;4.380;2023-08-20T08:10:26;30.10;59.00
22682;DHT22;11508;50.856;4.380;2023-08-20T08:12:51;28.50;61.10
22682;DHT22;11508;50.856;4.380;2023-08-20T08:15:17;30.10;59.60
22682;DHT22;11508;50.856;4.380;2023-08-20T08:17:43;32.60;56.50
22682;DHT22;11508;50.856;4.380;2023-08-20T08:20:09;33.50;52.80
22682;DHT22;11508;50.856;4.380;2023-08-20T08:22:35;34.10;50.40
22682;DHT22;11508;50.856;4.380;2023-08-20T08:25:00;34.70;48.90
22682;DHT22;11508;50.856;4.380;2023-08-20T08:27:26;35.00;48.10
22682;DHT22;11508;50.856;4.380;2023-08-20T08:29:52;33.90;50.50
22682;DHT22;11508;50.856;4.380;2023-08-20T08:32:17;36.20;46.60
22682;DHT22;11508;50.856;4.380;2023-08-20T08:34:43;37.60;42.10
22682;DHT22;11508;50.856;4.380;2023-08-20T08:37:09;38.60;39.30
22682;DHT22;11508;50.856;4.380;2023-08-20T08:39:34;38.40;38.80
22682;DHT22;11508;50.856;4.380;2023-08-20T08:42:02;38.50;39.30
22682;DHT22;11508;50.856;4.380;2023-08-20T08:44:34;39.80;37.20
22682;DHT22;11508;50.856;4.380;2023-08-20T08:47:02;40.40;36.70
22682;DHT22;11508;50.856;4.380;2023-08-20T08:49:27;41.10;31.90
22682;DHT22;11508;50.856;4.380;2023-08-20T08:51:56;41.30;31.00
22682;DHT22;11508;50.856;4.380;2023-08-20T08:54:23;41.40;30.30
22682;DHT22;11508;50.856;4.380;2023-08-20T08:56:50;41.20;31.00
22682;DHT22;11508;50.856;4.380;2023-08-20T08:59:15;41.80;31.00
22682;DHT22;11508;50.856;4.380;2023-08-20T09:01:41;42.40;30.00
22682;DHT22;11508;50.856;4.380;2023-08-20T09:04:07;42.70;28.80
22682;DHT22;11508;50.856;4.380;2023-08-20T09:06:50;42.70;28.30
22682;DHT22;11508;50.856;4.380;2023-08-20T09:09:20;42.80;28.00
22682;DHT22;11508;50.856;4.380;2023-08-20T09:11:47;42.70;27.50
22682;DHT22;11508;50.856;4.380;2023-08-20T09:14:23;42.90;27.50
22682;DHT22;11508;50.856;4.380;2023-08-20T09:17:01;43.10;26.90
22682;DHT22;11508;50.856;4.380;2023-08-20T09:19:35;42.60;27.40
22682;DHT22;11508;50.856;4.380;2023-08-20T09:22:03;40.00;28.80
22682;DHT22;11508;50.856;4.380;2023-08-20T09:24:45;40.20;29.50
22682;DHT22;11508;50.856;4.380;2023-08-20T09:27:14;41.30;28.40
22682;DHT22;11508;50.856;4.380;2023-08-20T09:29:54;41.70;27.40
22682;DHT22;11508;50.856;4.380;2023-08-20T09:32:21;42.10;26.80
22682;DHT22;11508;50.856;4.380;2023-08-20T09:34:52;41.90;26.30
22682;DHT22;11508;50.856;4.380;2023-08-20T09:37:19;41.20;27.50
22682;DHT22;11508;50.856;4.380;2023-08-20T09:39:45;41.30;27.10
22682;DHT22;11508;50.856;4.380;2023-08-20T09:42:12;41.40;26.90
22682;DHT22;11508;50.856;4.380;2023-08-20T09:44:42;40.20;26.50
22682;DHT22;11508;50.856;4.380;2023-08-20T09:47:12;40.90;27.30
22682;DHT22;11508;50.856;4.380;2023-08-20T09:49:42;41.40;26.60
22682;DHT22;11508;50.856;4.380;2023-08-20T09:52:14;42.00;26.00
22682;DHT22;11508;50.856;4.380;2023-08-20T09:57:27;40.60;26.70
22682;DHT22;11508;50.856;4.380;2023-08-20T09:59:57;41.20;26.10
22682;DHT22;11508;50.856;4.380;2023-08-20T10:02:24;41.50;26.10
22682;DHT22;11508;50.856;4.380;2023-08-20T10:04:50;42.00;25.60
22682;DHT22;11508;50.856;4.380;2023-08-20T10:07:17;42.30;24.90
22682;DHT22;11508;50.856;4.380;2023-08-20T10:09:43;42.60;20.40
22682;DHT22;11508;50.856;4.380;2023-08-20T10:12:16;42.10;20.50
22682;DHT22;11508;50.856;4.380;2023-08-20T10:14:42;37.00;12.60
22682;DHT22;11508;50.856;4.380;2023-08-20T10:17:11;39.10;1.00
22682;DHT22;11508;50.856;4.380;2023-08-20T10:19:38;40.40;1.00
22682;DHT22;11508;50.856;4.380;2023-08-20T10:22:04;39.90;1.00
22682;DHT22;11508;50.856;4.380;2023-08-20T10:24:50;39.00;99.90
22682;DHT22;11508;50.856;4.380;2023-08-20T10:27:27;39.60;1.00
22682;DHT22;11508;50.856;4.380;2023-08-20T10:29:54;40.40;99.90
22682;DHT22;11508;50.856;4.380;2023-08-20T10:32:43;38.50;99.90
22682;DHT22;11508;50.856;4.380;2023-08-20T10:35:06;34.70;99.90
22682;DHT22;11508;50.856;4.380;2023-08-20T10:37:34;33.10;1.00
22682;DHT22;11508;50.856;4.380;2023-08-20T10:39:59;32.80;99.90
22682;DHT22;11508;50.856;4.380;2023-08-20T10:42:28;32.40;99.90
22682;DHT22;11508;50.856;4.380;2023-08-20T10:45:08;33.30;99.90
22682;DHT22;11508;50.856;4.380;2023-08-20T10:47:44;35.60;99.90
22682;DHT22;11508;50.856;4.380;2023-08-20T10:50:11;36.60;99.90
22682;DHT22;11508;50.856;4.380;2023-08-20T10:52:40;37.40;99.90
22682;DHT22;11508;50.856;4.380;2023-08-20T10:55:07;38.30;1.00
22682;DHT22;11508;50.856;4.380;2023-08-20T10:57:35;37.20;1.00
22682;DHT22;11508;50.856;4.380;2023-08-20T11:00:03;36.50;1.00
22682;DHT22;11508;50.856;4.380;2023-08-20T11:02:35;37.30;1.00
22682;DHT22;11508;50.856;4.380;2023-08-20T11:05:03;38.30;1.00
22682;DHT22;11508;50.856;4.380;2023-08-20T11:07:30;38.70;1.00
22682;DHT22;11508;50.856;4.380;2023-08-20T11:09:57;39.10;1.00
22682;DHT22;11508;50.856;4.380;2023-08-20T11:12:23;39.70;99.90
22682;DHT22;11508;50.856;4.380;2023-08-20T11:14:49;38.90;1.00
22682;DHT22;11508;50.856;4.380;2023-08-20T11:17:15;39.10;99.90
22682;DHT22;11508;50.856;4.380;2023-08-20T11:19:41;37.50;99.90
22682;DHT22;11508;50.856;4.380;2023-08-20T11:22:06;36.30;99.90
22682;DHT22;11508;50.856;4.380;2023-08-20T11:24:33;35.80;1.00
22682;DHT22;11508;50.856;4.380;2023-08-20T11:26:59;36.00;99.90
22682;DHT22;11508;50.856;4.380;2023-08-20T11:29:25;37.20;99.90
22682;DHT22;11508;50.856;4.380;2023-08-20T11:31:52;37.40;99.90
22682;DHT22;11508;50.856;4.380;2023-08-20T11:34:21;37.50;99.90
22682;DHT22;11508;50.856;4.380;2023-08-20T11:36:47;38.00;99.90
22682;DHT22;11508;50.856;4.380;2023-08-20T11:39:13;38.30;99.90
22682;DHT22;11508;50.856;4.380;2023-08-20T11:41:40;38.00;99.90
22682;DHT22;11508;50.856;4.380;2023-08-20T11:44:08;38.30;99.90
22682;DHT22;11508;50.856;4.380;2023-08-20T11:46:42;38.10;1.00
22682;DHT22;11508;50.856;4.380;2023-08-20T11:49:10;38.10;99.90
22682;DHT22;11508;50.856;4.380;2023-08-20T11:51:42;37.20;99.90
22682;DHT22;11508;50.856;4.380;2023-08-20T11:54:12;37.40;34.30
22682;DHT22;11508;50.856;4.380;2023-08-20T11:57:04;35.70;99.90
22682;DHT22;11508;50.856;4.380;2023-08-20T11:59:30;37.00;99.90
22682;DHT22;11508;50.856;4.380;2023-08-20T12:02:01;37.40;1.00
22682;DHT22;11508;50.856;4.380;2023-08-20T12:04:28;36.90;99.90
22682;DHT22;11508;50.856;4.380;2023-08-20T12:07:13;36.50;99.90
22682;DHT22;11508;50.856;4.380;2023-08-20T12:09:40;34.80;99.90
22682;DHT22;11508;50.856;4.380;2023-08-20T12:12:07;35.90;42.00
22682;DHT22;11508;50.856;4.380;2023-08-20T12:14:33;34.30;13.50
22682;DHT22;11508;50.856;4.380;2023-08-20T12:16:59;34.00;99.90
22682;DHT22;11508;50.856;4.380;2023-08-20T12:19:25;33.80;99.90
22682;DHT22;11508;50.856;4.380;2023-08-20T12:21:51;34.20;99.90
22682;DHT22;11508;50.856;4.380;2023-08-20T12:24:17;34.30;99.90
22682;DHT22;11508;50.856;4.380;2023-08-20T12:26:44;34.40;21.20
22682;DHT22;11508;50.856;4.380;2023-08-20T12:29:10;31.50;99.90
22682;DHT22;11508;50.856;4.380;2023-08-20T12:31:37;31.90;1.00
22682;DHT22;11508;50.856;4.380;2023-08-20T12:34:03;32.90;92.30
22682;DHT22;11508;50.856;4.380;2023-08-20T12:36:29;34.10;99.80
22682;DHT22;11508;50.856;4.380;2023-08-20T12:38:55;33.90;83.70
22682;DHT22;11508;50.856;4.380;2023-08-20T12:41:21;33.00;99.90
22682;DHT22;11508;50.856;4.380;2023-08-20T12:43:47;32.70;98.30
22682;DHT22;11508;50.856;4.380;2023-08-20T12:46:12;32.10;69.00
22682;DHT22;11508;50.856;4.380;2023-08-20T12:48:39;31.90;1.00
22682;DHT22;11508;50.856;4.380;2023-08-20T12:51:05;31.90;1.00
22682;DHT22;11508;50.856;4.380;2023-08-20T12:53:32;32.60;1.00
22682;DHT22;11508;50.856;4.380;2023-08-20T12:55:58;32.70;1.00
22682;DHT22;11508;50.856;4.380;2023-08-20T12:58:23;32.60;1.00
22682;DHT22;11508;50.856;4.380;2023-08-20T13:00:50;32.70;99.90
22682;DHT22;11508;50.856;4.380;2023-08-20T13:03:17;32.70;1.00
22682;DHT22;11508;50.856;4.380;2023-08-20T13:05:43;32.70;99.90
22682;DHT22;11508;50.856;4.380;2023-08-20T13:08:09;32.50;99.90
22682;DHT22;11508;50.856;4.380;2023-08-20T13:10:39;32.50;76.30
22682;DHT22;11508;50.856;4.380;2023-08-20T13:13:06;32.60;22.50
22682;DHT22;11508;50.856;4.380;2023-08-20T13:15:34;32.10;1.00
22682;DHT22;11508;50.856;4.380;2023-08-20T13:18:00;31.10;1.00
22682;DHT22;11508;50.856;4.380;2023-08-20T13:20:26;30.90;27.40
22682;DHT22;11508;50.856;4.380;2023-08-20T13:22:52;30.80;99.90
22682;DHT22;11508;50.856;4.380;2023-08-20T13:25:18;31.00;99.90
22682;DHT22;11508;50.856;4.380;2023-08-20T13:27:47;31.30;1.00
22682;DHT22;11508;50.856;4.380;2023-08-20T13:30:12;31.50;99.90
22682;DHT22;11508;50.856;4.380;2023-08-20T13:32:39;31.80;99.90
22682;DHT22;11508;50.856;4.380;2023-08-20T13:35:05;31.60;99.90
22682;DHT22;11508;50.856;4.380;2023-08-20T13:37:31;31.60;99.90
22682;DHT22;11508;50.856;4.380;2023-08-20T13:39:57;31.60;99.90
22682;DHT22;11508;50.856;4.380;2023-08-20T13:42:23;31.60;99.90
22682;DHT22;11508;50.856;4.380;2023-08-20T13:44:49;31.30;99.90
22682;DHT22;11508;50.856;4.380;2023-08-20T13:47:15;31.60;99.90
22682;DHT22;11508;50.856;4.380;2023-08-20T13:49:42;31.80;99.90
22682;DHT22;11508;50.856;4.380;2023-08-20T13:52:08;32.10;13.20
22682;DHT22;11508;50.856;4.380;2023-08-20T13:54:35;32.20;1.00
22682;DHT22;11508;50.856;4.380;2023-08-20T13:57:02;32.40;1.30
22682;DHT22;11508;50.856;4.380;2023-08-20T13:59:29;32.40;1.00
22682;DHT22;11508;50.856;4.380;2023-08-20T14:01:55;32.40;99.90
22682;DHT22;11508;50.856;4.380;2023-08-20T14:04:20;32.50;1.00
22682;DHT22;11508;50.856;4.380;2023-08-20T14:06:46;32.50;99.90
22682;DHT22;11508;50.856;4.380;2023-08-20T14:09:11;32.70;99.90
22682;DHT22;11508;50.856;4.380;2023-08-20T14:11:37;32.70;99.90
22682;DHT22;11508;50.856;4.380;2023-08-20T14:14:03;32.00;1.00
22682;DHT22;11508;50.856;4.380;2023-08-20T14:16:29;30.80;2.00
22682;DHT22;11508;50.856;4.380;2023-08-20T14:18:54;30.00;1.00
22682;DHT22;11508;50.856;4.380;2023-08-20T14:21:21;29.90;1.00
22682;DHT22;11508;50.856;4.380;2023-08-20T14:23:46;30.50;1.00
22682;DHT22;11508;50.856;4.380;2023-08-20T14:26:12;31.00;99.90
22682;DHT22;11508;50.856;4.380;2023-08-20T14:28:37;31.30;1.00
22682;DHT22;11508;50.856;4.380;2023-08-20T14:31:04;31.50;1.00
22682;DHT22;11508;50.856;4.380;2023-08-20T14:33:31;31.60;1.00
22682;DHT22;11508;50.856;4.380;2023-08-20T14:35:56;31.80;1.00
22682;DHT22;11508;50.856;4.380;2023-08-20T14:38:22;31.80;99.90
22682;DHT22;11508;50.856;4.380;2023-08-20T14:40:49;31.80;99.90
22682;DHT22;11508;50.856;4.380;2023-08-20T14:43:14;31.90;99.90
22682;DHT22;11508;50.856;4.380;2023-08-20T14:45:40;31.80;99.90
22682;DHT22;11508;50.856;4.380;2023-08-20T14:48:06;31.70;99.90
22682;DHT22;11508;50.856;4.380;2023-08-20T14:50:32;31.50;99.90
22682;DHT22;11508;50.856;4.380;2023-08-20T14:52:58;31.50;99.90
22682;DHT22;11508;50.856;4.380;2023-08-20T14:55:24;31.50;99.90
22682;DHT22;11508;50.856;4.380;2023-08-20T14:57:50;31.40;99.90
22682;DHT22;11508;50.856;4.380;2023-08-20T15:00:15;30.80;99.90
22682;DHT22;11508;50.856;4.380;2023-08-20T15:02:46;30.90;99.90
22682;DHT22;11508;50.856;4.380;2023-08-20T15:05:12;30.90;99.90
22682;DHT22;11508;50.856;4.380;2023-08-20T15:07:38;31.00;99.90
22682;DHT22;11508;50.856;4.380;2023-08-20T15:10:04;31.00;99.90
22682;DHT22;11508;50.856;4.380;2023-08-20T15:12:36;30.70;99.90
22682;DHT22;11508;50.856;4.380;2023-08-20T15:15:06;30.70;99.90
22682;DHT22;11508;50.856;4.380;2023-08-20T15:17:34;30.70;99.90
22682;DHT22;11508;50.856;4.380;2023-08-20T15:20:00;30.60;99.90
22682;DHT22;11508;50.856;4.380;2023-08-20T15:22:25;30.50;99.90
22682;DHT22;11508;50.856;4.380;2023-08-20T15:24:51;30.60;91.30
22682;DHT22;11508;50.856;4.380;2023-08-20T15:27:17;30.50;99.90
22682;DHT22;11508;50.856;4.380;2023-08-20T15:29:44;30.50;99.90
22682;DHT22;11508;50.856;4.380;2023-08-20T15:32:10;30.40;99.90
22682;DHT22;11508;50.856;4.380;2023-08-20T15:34:36;30.30;99.90
22682;DHT22;11508;50.856;4.380;2023-08-20T15:37:02;30.40;99.90
22682;DHT22;11508;50.856;4.380;2023-08-20T15:39:31;29.90;99.90
22682;DHT22;11508;50.856;4.380;2023-08-20T15:41:57;30.20;99.90
22682;DHT22;11508;50.856;4.380;2023-08-20T15:44:22;30.40;99.90
22682;DHT22;11508;50.856;4.380;2023-08-20T15:46:48;30.30;99.90
22682;DHT22;11508;50.856;4.380;2023-08-20T15:49:14;30.30;99.90
22682;DHT22;11508;50.856;4.380;2023-08-20T15:51:39;30.20;99.90